Time;durP1;ratioP1;P1;durP2;ratioP2;P2;SDS_P1;SDS_P2;PMS_P1;PMS_P2;Temp;Humidity;BMP_temperature;BMP_pressure;BME280_temperature;BME280_humidity;BME280_pressure;Samples;Min_cycle;Max_cycle;Signal;HPM_P1;HPM_P2
2022/01/05 00:00:47;;;;;;;10.33;1.73;;;1.90;99.90;;;;;;4992359;28;20038;-28
2022/01/05 00:03:12;;;;;;;13.60;2.20;;;1.80;99.90;;;;;;4991540;28;20515;-28
2022/01/05 00:05:38;;;;;;;10.33;1.97;;;1.80;99.90;;;;;;4976599;28;20080;-28
2022/01/05 00:08:04;;;;;;;17.47;2.10;;;1.80;99.90;;;;;;4956823;28;20529;-28
2022/01/05 00:10:30;;;;;;;14.47;1.90;;;1.80;99.90;;;;;;4951067;28;20043;-28
2022/01/05 00:12:55;;;;;;;9.70;1.80;;;1.80;99.90;;;;;;4973792;28;20050;-28
2022/01/05 00:15:21;;;;;;;13.20;1.87;;;1.80;99.90;;;;;;4992437;28;20125;-28
2022/01/05 00:17:47;;;;;;;9.00;2.00;;;1.80;99.90;;;;;;4975917;28;20105;-28
2022/01/05 00:20:13;;;;;;;14.53;2.00;;;1.80;99.90;;;;;;4974374;28;20513;-27
2022/01/05 00:22:38;;;;;;;12.20;1.97;;;1.70;99.90;;;;;;4991156;28;20053;-28
2022/01/05 00:25:05;;;;;;;11.93;1.87;;;1.70;99.90;;;;;;4992269;28;20482;-29
2022/01/05 00:27:31;;;;;;;15.00;2.30;;;1.70;99.90;;;;;;4957919;28;20100;-30
2022/01/05 00:29:58;;;;;;;12.13;2.57;;;1.70;99.90;;;;;;4991710;28;20050;-28
2022/01/05 00:32:24;;;;;;;16.13;2.27;;;1.70;99.90;;;;;;4991153;28;20065;-29
2022/01/05 00:34:50;;;;;;;11.30;1.83;;;1.70;99.90;;;;;;4991759;28;20053;-28
2022/01/05 00:37:15;;;;;;;14.37;1.87;;;1.70;99.90;;;;;;4975937;28;20509;-28
2022/01/05 00:39:41;;;;;;;12.00;2.43;;;1.70;99.90;;;;;;4991765;28;20052;-28
2022/01/05 00:42:07;;;;;;;14.63;2.33;;;1.70;99.90;;;;;;4991105;28;20049;-28
2022/01/05 00:44:33;;;;;;;12.83;2.30;;;1.70;99.90;;;;;;4991472;28;20053;-28
2022/01/05 00:46:59;;;;;;;14.17;2.67;;;1.50;99.90;;;;;;4975978;28;20042;-28
2022/01/05 00:49:24;;;;;;;18.77;2.20;;;1.70;99.90;;;;;;4990291;28;20046;-28
2022/01/05 00:51:50;;;;;;;14.70;2.80;;;1.70;99.90;;;;;;4991641;28;20070;-28
2022/01/05 00:54:16;;;;;;;18.73;2.97;;;1.70;99.90;;;;;;4991118;28;20038;-28
2022/01/05 00:56:41;;;;;;;16.23;2.27;;;1.70;99.90;;;;;;4977775;28;20074;-27
2022/01/05 00:59:07;;;;;;;15.73;2.67;;;1.80;99.90;;;;;;4971282;28;20050;-28
2022/01/05 01:01:33;;;;;;;18.20;2.67;;;1.80;99.90;;;;;;4974639;28;20573;-28
2022/01/05 01:03:59;;;;;;;14.90;2.67;;;1.80;99.90;;;;;;4986296;28;20122;-28
2022/01/05 01:06:24;;;;;;;14.87;2.77;;;1.80;99.90;;;;;;4959477;28;20046;-28
2022/01/05 01:08:50;;;;;;;14.60;2.47;;;1.80;99.90;;;;;;4967860;28;20047;-28
2022/01/05 01:11:16;;;;;;;16.77;2.77;;;1.90;99.90;;;;;;4989444;28;20053;-28
2022/01/05 01:13:43;;;;;;;14.37;3.23;;;1.90;99.90;;;;;;4972737;28;20046;-28
2022/01/05 01:16:09;;;;;;;16.40;3.33;;;2.00;99.90;;;;;;4984761;28;20132;-28
2022/01/05 01:18:35;;;;;;;14.70;3.00;;;2.00;99.90;;;;;;4963933;28;20122;-28
2022/01/05 01:21:02;;;;;;;18.83;2.97;;;2.10;99.90;;;;;;4991304;28;20430;-29
2022/01/05 01:23:27;;;;;;;23.63;3.87;;;2.10;99.90;;;;;;4989873;28;20137;-29
2022/01/05 01:25:54;;;;;;;14.67;3.00;;;2.10;99.90;;;;;;4973506;28;20132;-28
2022/01/05 01:28:21;;;;;;;16.60;2.83;;;2.20;99.90;;;;;;4974492;28;20046;-28
2022/01/05 01:30:48;;;;;;;17.07;3.27;;;2.20;99.90;;;;;;4990684;28;20082;-29
2022/01/05 01:33:14;;;;;;;19.40;3.47;;;2.20;99.90;;;;;;4989918;28;20485;-28
2022/01/05 01:35:40;;;;;;;15.00;3.37;;;2.20;99.90;;;;;;4973248;28;20054;-28
2022/01/05 01:38:06;;;;;;;17.03;3.00;;;2.30;99.90;;;;;;4975478;28;20050;-28
2022/01/05 01:40:32;;;;;;;19.67;3.20;;;2.30;99.90;;;;;;4990801;28;20042;-28
2022/01/05 01:42:57;;;;;;;17.30;3.20;;;2.30;99.90;;;;;;4972260;28;20050;-29
2022/01/05 01:45:23;;;;;;;17.90;3.20;;;2.30;99.90;;;;;;4973028;28;20050;-28
2022/01/05 01:47:49;;;;;;;19.53;3.37;;;2.40;99.90;;;;;;4974253;28;20093;-28
2022/01/05 01:50:15;;;;;;;16.13;3.20;;;2.40;99.90;;;;;;4990238;28;20050;-28
2022/01/05 01:52:41;;;;;;;18.90;3.60;;;2.40;99.90;;;;;;4989959;28;20054;-28
2022/01/05 01:55:08;;;;;;;19.90;3.40;;;2.50;99.90;;;;;;4990621;28;20042;-28
2022/01/05 01:57:35;;;;;;;19.67;3.07;;;2.50;99.90;;;;;;4956472;28;20039;-29
2022/01/05 02:00:03;;;;;;;21.73;3.30;;;2.50;99.90;;;;;;4990070;28;20054;-28
2022/01/05 02:02:29;;;;;;;13.90;3.33;;;2.50;99.90;;;;;;4988875;28;20069;-28
2022/01/05 02:04:55;;;;;;;17.30;2.93;;;2.50;99.90;;;;;;4980068;28;20506;-28
2022/01/05 02:07:20;;;;;;;19.67;2.97;;;2.50;99.90;;;;;;4954638;28;20057;-28
2022/01/05 02:09:46;;;;;;;16.03;3.00;;;2.60;99.90;;;;;;4976417;28;20437;-28
2022/01/05 02:12:12;;;;;;;19.00;3.00;;;2.60;99.90;;;;;;4989222;28;20445;-28
2022/01/05 02:14:37;;;;;;;18.87;3.03;;;2.60;99.90;;;;;;4989820;28;20046;-28
2022/01/05 02:17:09;;;;;;;15.70;3.20;;;2.50;99.90;;;;;;4956439;28;20137;-34
2022/01/05 02:19:35;;;;;;;18.10;2.83;;;2.50;99.90;;;;;;4972403;28;20042;-28
2022/01/05 02:22:02;;;;;;;15.10;3.10;;;2.50;99.90;;;;;;4989613;28;20125;-28
2022/01/05 02:24:28;;;;;;;20.40;3.30;;;2.50;99.90;;;;;;4988782;28;20047;-28
2022/01/05 02:26:54;;;;;;;22.23;4.30;;;2.50;99.90;;;;;;4974630;28;20052;-28
2022/01/05 02:29:21;;;;;;;22.87;3.33;;;2.50;99.90;;;;;;4971187;28;20137;-28
2022/01/05 02:31:47;;;;;;;18.73;3.50;;;2.60;99.90;;;;;;4989410;28;20054;-28
2022/01/05 02:34:15;;;;;;;17.87;3.53;;;2.60;99.90;;;;;;4988674;28;20046;-28
2022/01/05 02:36:41;;;;;;;25.87;3.40;;;2.60;99.90;;;;;;4975742;28;20100;-29
2022/01/05 02:39:06;;;;;;;19.07;3.53;;;2.60;99.90;;;;;;4970344;28;20038;-28
2022/01/05 02:41:32;;;;;;;20.67;3.57;;;2.60;99.90;;;;;;4989697;28;20145;-28
2022/01/05 02:43:58;;;;;;;23.27;3.40;;;2.60;99.90;;;;;;4970950;28;20121;-28
2022/01/05 02:46:24;;;;;;;22.77;3.97;;;2.60;99.90;;;;;;4977257;28;20053;-28
2022/01/05 02:48:52;;;;;;;23.70;3.90;;;2.60;99.90;;;;;;4983604;28;20097;-28
2022/01/05 02:51:18;;;;;;;20.03;3.47;;;2.70;99.90;;;;;;4989531;28;20089;-28
2022/01/05 02:53:45;;;;;;;21.83;3.73;;;2.60;99.90;;;;;;4988582;28;20052;-28
2022/01/05 02:56:11;;;;;;;14.97;3.30;;;2.70;99.90;;;;;;4964123;28;20054;-29
2022/01/05 02:58:37;;;;;;;15.97;3.67;;;2.70;99.90;;;;;;4980813;28;20422;-28
2022/01/05 03:01:03;;;;;;;20.70;3.60;;;2.70;99.90;;;;;;4972657;28;20042;-28
2022/01/05 03:03:29;;;;;;;17.50;3.33;;;2.70;99.90;;;;;;4988253;28;20057;-28
2022/01/05 03:05:55;;;;;;;23.10;3.40;;;2.80;99.90;;;;;;4970956;28;20042;-28
2022/01/05 03:08:20;;;;;;;25.60;3.43;;;2.80;99.90;;;;;;4953378;28;20054;-28
2022/01/05 03:10:47;;;;;;;23.93;3.83;;;2.80;99.90;;;;;;4983517;28;20046;-29
2022/01/05 03:13:12;;;;;;;24.10;3.50;;;2.80;99.90;;;;;;4988089;28;20108;-28
2022/01/05 03:15:38;;;;;;;15.77;3.30;;;2.90;99.90;;;;;;4989406;28;20467;-29
2022/01/05 03:18:05;;;;;;;21.43;3.37;;;2.90;99.90;;;;;;4955501;28;20070;-28
2022/01/05 03:20:32;;;;;;;14.60;3.67;;;3.00;99.90;;;;;;4971143;28;20042;-28
2022/01/05 03:22:58;;;;;;;24.60;3.67;;;3.00;99.90;;;;;;4979946;28;20873;-29
2022/01/05 03:25:25;;;;;;;16.27;2.93;;;3.00;99.90;;;;;;4988853;28;20053;-28
2022/01/05 03:27:52;;;;;;;16.53;3.17;;;3.00;99.90;;;;;;4971821;28;20109;-29
2022/01/05 03:30:23;;;;;;;20.17;3.33;;;3.00;99.90;;;;;;4988763;28;20042;-28
2022/01/05 03:33:09;;;;;;;19.83;3.05;;;3.00;99.90;;;;;;4987844;28;20046;-29
2022/01/05 03:35:45;;;;;;;14.53;3.10;;;3.10;99.90;;;;;;4988737;28;20050;-29
2022/01/05 03:38:12;;;;;;;15.70;2.77;;;3.10;99.90;;;;;;4939659;28;20050;-28
2022/01/05 03:40:39;;;;;;;16.43;2.90;;;3.10;99.90;;;;;;4988707;28;20484;-28
2022/01/05 03:43:07;;;;;;;20.10;2.90;;;3.10;99.90;;;;;;4970380;28;20065;-28
2022/01/05 03:45:34;;;;;;;19.93;2.93;;;3.20;99.90;;;;;;4971089;28;20054;-28
2022/01/05 03:48:00;;;;;;;15.60;2.97;;;3.20;99.90;;;;;;4971972;28;20406;-28
2022/01/05 03:50:26;;;;;;;15.93;3.10;;;3.20;99.90;;;;;;4988375;28;20087;-29
2022/01/05 03:52:52;;;;;;;13.93;2.90;;;3.30;99.90;;;;;;4987876;28;20060;-28
2022/01/05 03:55:18;;;;;;;19.20;2.97;;;3.30;99.90;;;;;;4988690;28;20386;-27
2022/01/05 03:57:43;;;;;;;19.47;2.97;;;3.20;99.90;;;;;;4972294;28;20073;-29
2022/01/05 04:00:10;;;;;;;21.80;3.20;;;3.30;99.90;;;;;;4969018;28;20058;-29
2022/01/05 04:02:35;;;;;;;20.00;3.50;;;3.30;99.90;;;;;;4971658;28;20053;-28
2022/01/05 04:05:01;;;;;;;20.00;2.50;;;3.30;99.90;;;;;;4977142;28;20175;-29
2022/01/05 04:07:27;;;;;;;18.17;3.10;;;3.30;99.90;;;;;;4953107;28;20800;-29
2022/01/05 04:09:53;;;;;;;22.90;3.40;;;3.30;99.90;;;;;;4975268;28;20514;-28
2022/01/05 04:12:18;;;;;;;20.03;2.67;;;3.30;99.90;;;;;;4969923;28;20401;-29
2022/01/05 04:14:44;;;;;;;16.57;2.93;;;3.30;99.90;;;;;;4971101;28;20042;-28
2022/01/05 04:17:10;;;;;;;12.67;2.20;;;3.30;99.90;;;;;;4972281;28;20129;-30
2022/01/05 04:19:35;;;;;;;11.73;2.37;;;3.30;99.90;;;;;;4987971;28;20077;-29
2022/01/05 04:22:01;;;;;;;12.43;2.43;;;3.30;99.90;;;;;;4988541;28;20046;-28
2022/01/05 04:24:27;;;;;;;14.33;2.20;;;3.30;99.90;;;;;;4987359;28;20038;-29
2022/01/05 04:26:53;;;;;;;14.50;2.30;;;3.20;99.90;;;;;;4973183;28;20054;-29
2022/01/05 04:29:18;;;;;;;17.47;2.53;;;3.20;99.90;;;;;;4987153;28;20058;-29
2022/01/05 04:31:45;;;;;;;13.27;2.20;;;3.20;99.90;;;;;;4970720;28;20058;-29
2022/01/05 04:34:11;;;;;;;13.70;2.23;;;3.20;99.90;;;;;;4986985;28;20081;-29
2022/01/05 04:36:37;;;;;;;16.43;2.13;;;3.20;99.90;;;;;;4974336;28;20045;-28
2022/01/05 04:39:03;;;;;;;16.40;2.97;;;3.20;99.90;;;;;;4989189;28;20053;-28
2022/01/05 04:41:29;;;;;;;17.40;2.43;;;3.20;99.90;;;;;;4958220;28;20116;-28
2022/01/05 04:43:54;;;;;;;13.37;2.63;;;3.20;99.90;;;;;;4973173;28;20046;-29
2022/01/05 04:46:20;;;;;;;17.50;2.83;;;3.20;99.90;;;;;;4963470;28;20441;-28
2022/01/05 04:48:46;;;;;;;15.70;2.97;;;3.20;99.90;;;;;;4985548;28;20063;-28
2022/01/05 04:51:11;;;;;;;12.73;2.33;;;3.10;99.90;;;;;;4991783;28;20053;-28
2022/01/05 04:53:37;;;;;;;10.07;2.77;;;3.20;99.90;;;;;;4990876;28;20047;-28
2022/01/05 04:56:03;;;;;;;19.17;2.60;;;3.20;99.90;;;;;;4973615;28;20054;-28
2022/01/05 04:58:28;;;;;;;12.77;2.60;;;3.20;99.90;;;;;;4975094;28;20042;-29
2022/01/05 05:00:54;;;;;;;19.90;3.00;;;3.20;99.90;;;;;;4975114;28;20123;-28
2022/01/05 05:03:20;;;;;;;16.43;3.03;;;3.20;99.90;;;;;;4990463;28;20054;-29
2022/01/05 05:05:45;;;;;;;18.63;3.40;;;3.20;99.90;;;;;;4974406;28;20146;-28
2022/01/05 05:08:11;;;;;;;21.40;3.17;;;3.20;99.90;;;;;;4955496;28;20430;-28
2022/01/05 05:10:37;;;;;;;14.80;3.30;;;3.30;99.90;;;;;;4984199;28;20054;-28
2022/01/05 05:13:10;;;;;;;24.30;4.07;;;3.30;99.90;;;;;;4972715;28;20140;-28
2022/01/05 05:15:36;;;;;;;23.93;4.43;;;3.30;99.90;;;;;;4991139;28;20529;-28
2022/01/05 05:18:02;;;;;;;18.73;3.80;;;3.30;99.90;;;;;;4957576;28;20120;-28
2022/01/05 05:20:28;;;;;;;26.43;3.77;;;3.40;99.90;;;;;;4973206;28;20506;-29
2022/01/05 05:22:54;;;;;;;25.50;4.10;;;3.40;99.90;;;;;;4990350;28;20069;-28
2022/01/05 05:25:19;;;;;;;20.87;4.23;;;3.50;99.90;;;;;;4990779;28;20038;-28
2022/01/05 05:27:45;;;;;;;20.87;3.97;;;3.50;99.90;;;;;;4974531;28;20049;-29
2022/01/05 05:30:11;;;;;;;21.80;3.53;;;3.50;99.90;;;;;;4990900;28;20184;-29
2022/01/05 05:32:37;;;;;;;19.70;3.67;;;3.60;99.90;;;;;;4969560;28;20046;-28
2022/01/05 05:35:03;;;;;;;20.00;3.60;;;3.60;99.90;;;;;;4972881;28;20054;-29
2022/01/05 05:37:29;;;;;;;17.60;3.33;;;3.60;99.90;;;;;;4975506;28;20050;-28
2022/01/05 05:39:54;;;;;;;15.50;3.03;;;3.60;99.90;;;;;;4990118;28;20532;-29
2022/01/05 05:42:20;;;;;;;16.67;2.87;;;3.60;99.90;;;;;;4972141;28;20501;-29
2022/01/05 05:44:46;;;;;;;16.50;2.57;;;3.60;99.90;;;;;;4970571;28;20318;-29
2022/01/05 05:47:11;;;;;;;17.33;2.87;;;3.50;99.90;;;;;;4953840;28;20075;-29
2022/01/05 05:49:37;;;;;;;16.30;3.33;;;3.50;99.90;;;;;;4960317;28;20042;-29
2022/01/05 05:52:03;;;;;;;14.00;2.67;;;3.40;99.90;;;;;;4990496;28;20050;-29
2022/01/05 05:54:29;;;;;;;13.03;2.93;;;3.40;99.90;;;;;;4989816;28;20097;-29
2022/01/05 05:56:54;;;;;;;13.47;2.83;;;3.40;99.90;;;;;;4975086;28;20047;-29
2022/01/05 05:59:20;;;;;;;18.17;3.33;;;3.40;99.90;;;;;;4989534;28;20054;-28
2022/01/05 06:01:46;;;;;;;18.90;3.37;;;3.40;99.90;;;;;;4990514;28;20069;-29
2022/01/05 06:04:11;;;;;;;15.50;3.20;;;3.50;99.90;;;;;;4984496;28;20387;-29
2022/01/05 06:06:37;;;;;;;18.83;3.27;;;3.50;99.90;;;;;;4957061;28;20097;-29
2022/01/05 06:09:03;;;;;;;14.37;2.63;;;3.50;99.90;;;;;;4968188;28;20074;-29
2022/01/05 06:11:28;;;;;;;12.63;2.77;;;3.60;99.90;;;;;;4990838;28;20053;-29
2022/01/05 06:13:54;;;;;;;24.87;3.23;;;3.60;99.90;;;;;;4989685;28;20521;-29
2022/01/05 06:16:22;;;;;;;18.13;2.60;;;3.60;99.90;;;;;;4979009;28;20046;-29
2022/01/05 06:18:47;;;;;;;17.00;3.73;;;3.60;99.90;;;;;;4986069;28;20055;-28
2022/01/05 06:21:13;;;;;;;22.43;3.53;;;3.70;99.90;;;;;;4990066;28;20049;-28
2022/01/05 06:23:39;;;;;;;19.27;3.47;;;3.70;99.90;;;;;;4989127;28;20055;-29
2022/01/05 06:26:04;;;;;;;18.67;3.40;;;3.70;99.90;;;;;;4989777;28;20057;-29
2022/01/05 06:28:30;;;;;;;23.83;3.80;;;3.90;99.90;;;;;;4975110;28;20058;-29
2022/01/05 06:30:56;;;;;;;25.90;4.47;;;3.80;99.90;;;;;;4971973;28;20069;-29
2022/01/05 06:33:22;;;;;;;20.30;4.20;;;3.80;99.90;;;;;;4988947;28;20625;-28
2022/01/05 06:35:47;;;;;;;29.10;4.60;;;3.90;99.90;;;;;;4989375;28;20054;-29
2022/01/05 06:38:13;;;;;;;21.83;3.57;;;3.90;99.90;;;;;;4956444;28;20466;-29
2022/01/05 06:40:39;;;;;;;22.50;3.37;;;3.90;99.90;;;;;;4989676;28;20049;-29
2022/01/05 06:43:05;;;;;;;11.40;2.60;;;4.00;99.90;;;;;;4988858;28;20070;-29
2022/01/05 06:45:31;;;;;;;21.20;3.30;;;4.00;99.90;;;;;;4989679;28;20050;-29
2022/01/05 06:47:58;;;;;;;20.83;3.10;;;4.00;99.90;;;;;;4973371;28;20051;-29
2022/01/05 06:50:24;;;;;;;17.67;2.53;;;4.10;99.90;;;;;;4988830;28;20085;-29
2022/01/05 06:52:50;;;;;;;12.27;2.37;;;4.10;99.90;;;;;;4971355;28;20526;-29
2022/01/05 06:55:17;;;;;;;12.53;2.50;;;4.10;99.90;;;;;;4989429;28;20341;-29
2022/01/05 06:57:42;;;;;;;15.37;2.73;;;4.10;99.90;;;;;;4972985;28;20056;-29
2022/01/05 07:00:10;;;;;;;24.57;2.93;;;4.10;99.90;;;;;;4989052;28;20117;-29
2022/01/05 07:02:36;;;;;;;14.67;3.00;;;4.10;99.90;;;;;;4986241;28;20049;-29
2022/01/05 07:05:02;;;;;;;16.63;2.60;;;4.10;99.90;;;;;;4977530;28;20497;-29
2022/01/05 07:07:28;;;;;;;9.50;2.57;;;4.20;99.90;;;;;;4953576;28;20133;-29
2022/01/05 07:09:54;;;;;;;17.97;2.60;;;4.10;99.90;;;;;;4976250;28;20485;-28
2022/01/05 07:12:19;;;;;;;14.67;2.77;;;4.20;99.90;;;;;;4988375;28;20042;-29
2022/01/05 07:14:45;;;;;;;16.60;2.67;;;4.10;99.90;;;;;;4989229;28;20041;-29
2022/01/05 07:17:11;;;;;;;12.47;2.30;;;4.10;99.90;;;;;;4972683;28;20054;-28
2022/01/05 07:19:37;;;;;;;17.57;2.57;;;4.20;99.90;;;;;;4988670;28;20097;-29
2022/01/05 07:22:02;;;;;;;15.27;2.80;;;4.10;99.90;;;;;;4986252;28;20461;-29
2022/01/05 07:24:28;;;;;;;19.63;3.50;;;4.10;99.90;;;;;;4984953;28;20049;-29
2022/01/05 07:26:54;;;;;;;15.10;2.53;;;4.10;99.90;;;;;;4972910;28;20049;-29
2022/01/05 07:29:20;;;;;;;15.40;2.30;;;4.10;99.90;;;;;;4987595;28;20061;-29
2022/01/05 07:31:45;;;;;;;19.50;2.90;;;4.10;99.90;;;;;;4989025;28;20050;-28
2022/01/05 07:34:12;;;;;;;19.47;2.77;;;4.10;99.90;;;;;;4988336;28;20471;-29
2022/01/05 07:36:38;;;;;;;16.40;2.53;;;4.10;99.90;;;;;;4956894;28;20126;-29
2022/01/05 07:39:05;;;;;;;16.97;2.97;;;4.20;99.90;;;;;;4987234;28;20472;-29
2022/01/05 07:41:35;;;;;;;14.70;2.27;;;4.20;99.90;;;;;;4988682;28;20046;-29
2022/01/05 07:44:01;;;;;;;12.33;2.40;;;4.20;99.90;;;;;;4970147;28;20565;-29
2022/01/05 07:46:27;;;;;;;13.93;2.20;;;4.20;99.90;;;;;;4976486;28;20144;-29
2022/01/05 07:48:53;;;;;;;15.23;2.50;;;4.20;99.90;;;;;;4984261;28;20138;-28
2022/01/05 07:51:19;;;;;;;17.87;2.87;;;4.30;99.90;;;;;;4988412;28;20335;-29
2022/01/05 07:53:44;;;;;;;12.70;2.97;;;4.40;99.90;;;;;;4987661;28;20061;-29
2022/01/05 07:56:10;;;;;;;15.83;3.10;;;4.40;99.90;;;;;;4980579;28;20046;-29
2022/01/05 07:58:37;;;;;;;11.13;2.40;;;4.40;99.90;;;;;;4962522;28;20054;-29
2022/01/05 08:01:04;;;;;;;9.87;1.67;;;4.40;99.90;;;;;;4973376;28;20133;-29
2022/01/05 08:03:33;;;;;;;10.33;1.77;;;4.40;99.90;;;;;;4987984;28;20051;-28
2022/01/05 08:06:01;;;;;;;16.87;2.40;;;4.40;99.90;;;;;;4988304;28;20054;-29
2022/01/05 08:08:27;;;;;;;13.47;2.03;;;4.40;99.90;;;;;;4972108;28;20050;-28
2022/01/05 08:10:53;;;;;;;16.20;2.33;;;4.40;99.90;;;;;;4988384;28;20046;-28
2022/01/05 08:13:18;;;;;;;11.77;2.20;;;4.40;99.90;;;;;;4985849;28;20053;-28
2022/01/05 08:15:44;;;;;;;13.27;2.17;;;4.40;99.90;;;;;;4966792;28;20462;-28
2022/01/05 08:18:10;;;;;;;15.17;3.23;;;4.40;99.90;;;;;;4967003;28;20125;-29
2022/01/05 08:20:35;;;;;;;13.97;2.47;;;4.40;99.90;;;;;;4981446;28;20499;-29
2022/01/05 08:23:01;;;;;;;12.63;2.20;;;4.50;99.90;;;;;;4983349;28;20054;-29
2022/01/05 08:25:27;;;;;;;17.47;2.90;;;4.50;99.90;;;;;;4969379;28;20058;-29
2022/01/05 08:27:52;;;;;;;16.77;2.57;;;4.50;99.90;;;;;;4956278;28;20043;-29
2022/01/05 08:30:21;;;;;;;22.07;2.93;;;4.50;99.90;;;;;;4990664;28;20038;-29
2022/01/05 08:32:47;;;;;;;20.67;3.60;;;4.50;99.90;;;;;;4990691;28;20050;-28
2022/01/05 08:35:15;;;;;;;19.23;3.70;;;4.50;99.90;;;;;;4969820;28;20109;-29
2022/01/05 08:37:44;;;;;;;24.80;4.27;;;4.60;99.90;;;;;;4965202;28;20057;-28
2022/01/05 08:40:14;;;;;;;24.20;3.70;;;4.70;99.90;;;;;;4980894;28;20069;-29
2022/01/05 08:42:40;;;;;;;17.97;3.47;;;4.70;99.90;;;;;;4967911;28;20337;-29
2022/01/05 08:45:07;;;;;;;25.87;3.83;;;4.70;99.90;;;;;;4990534;28;20581;-29
2022/01/05 08:47:33;;;;;;;21.73;3.17;;;4.80;99.90;;;;;;4947818;28;20125;-30
2022/01/05 08:49:59;;;;;;;24.47;3.40;;;4.80;99.90;;;;;;4968863;28;20133;-29
2022/01/05 08:52:25;;;;;;;28.47;3.67;;;4.90;99.90;;;;;;4986468;28;20045;-29
2022/01/05 08:54:51;;;;;;;25.87;3.97;;;4.90;99.90;;;;;;4950428;28;20448;-29
2022/01/05 08:57:17;;;;;;;25.10;4.03;;;4.90;99.90;;;;;;4968012;28;20129;-29
2022/01/05 08:59:44;;;;;;;25.23;3.60;;;5.00;99.90;;;;;;4966308;28;20054;-29
2022/01/05 09:02:13;;;;;;;26.90;3.80;;;5.00;99.90;;;;;;4982397;28;20506;-29
2022/01/05 09:04:39;;;;;;;19.73;2.93;;;5.00;99.90;;;;;;4981713;28;20042;-29
2022/01/05 09:07:06;;;;;;;18.23;3.13;;;5.00;99.90;;;;;;4963340;28;20070;-29
2022/01/05 09:09:31;;;;;;;14.87;2.40;;;5.00;99.90;;;;;;4982626;28;20378;-29
2022/01/05 09:11:57;;;;;;;11.83;2.30;;;4.90;99.90;;;;;;4984292;28;20035;-29
2022/01/05 09:14:22;;;;;;;14.50;2.47;;;5.00;99.90;;;;;;4979002;28;20494;-29
2022/01/05 09:16:48;;;;;;;23.07;3.10;;;5.00;99.90;;;;;;4965860;28;20043;-29
2022/01/05 09:19:14;;;;;;;18.63;3.47;;;4.90;99.90;;;;;;4979860;28;20077;-29
2022/01/05 09:21:40;;;;;;;22.97;3.67;;;4.90;99.90;;;;;;4997536;28;20421;-29
2022/01/05 09:24:06;;;;;;;20.00;3.23;;;4.90;99.90;;;;;;4982572;28;20046;-29
2022/01/05 09:26:32;;;;;;;23.30;3.10;;;4.90;99.90;;;;;;4957408;28;20435;-29
2022/01/05 09:28:58;;;;;;;21.30;3.80;;;4.90;99.90;;;;;;4971993;28;20042;-29
2022/01/05 09:31:24;;;;;;;18.80;3.00;;;4.90;99.90;;;;;;4965227;28;20042;-28
2022/01/05 09:33:49;;;;;;;21.60;3.33;;;4.90;99.90;;;;;;4986293;28;20125;-28
2022/01/05 09:36:19;;;;;;;24.43;3.60;;;5.00;99.90;;;;;;4970964;28;20078;-29
2022/01/05 09:44:08;;;;;;;23.07;3.73;;;5.10;99.90;;;;;;4978373;28;20490;-29
2022/01/05 09:46:55;;;;;;;30.43;3.70;;;5.10;99.90;;;;;;4957473;28;20457;-29
2022/01/05 09:49:33;;;;;;;20.43;3.10;;;5.10;99.90;;;;;;4979471;28;20046;-29
2022/01/05 09:52:07;;;;;;;13.43;2.97;;;5.20;99.90;;;;;;4990339;28;20082;-29
2022/01/05 09:54:35;;;;;;;16.37;3.57;;;5.20;99.90;;;;;;4989828;28;20101;-29
2022/01/05 09:57:02;;;;;;;20.27;3.43;;;5.30;99.90;;;;;;4975104;28;20049;-29
2022/01/05 09:59:32;;;;;;;20.83;3.53;;;5.30;99.90;;;;;;4972089;28;20474;-29
2022/01/05 10:01:58;;;;;;;24.53;4.20;;;5.40;99.90;;;;;;4973619;28;20482;-29
2022/01/05 10:04:24;;;;;;;22.93;3.70;;;5.50;99.90;;;;;;4983520;28;20039;-29
2022/01/05 10:06:50;;;;;;;24.40;4.10;;;5.60;99.90;;;;;;4955466;28;20065;-30
2022/01/05 10:09:16;;;;;;;21.13;4.70;;;5.60;99.90;;;;;;4971385;28;20418;-29
2022/01/05 10:11:42;;;;;;;21.47;3.47;;;5.80;99.90;;;;;;4972332;28;20536;-29
2022/01/05 10:14:11;;;;;;;22.87;4.43;;;5.80;99.90;;;;;;4988882;28;20070;-29
2022/01/05 10:16:38;;;;;;;27.87;4.03;;;5.90;99.90;;;;;;4964256;28;20060;-29
2022/01/05 10:19:05;;;;;;;19.10;3.70;;;6.00;99.90;;;;;;4966600;28;20054;-29
2022/01/05 10:21:36;;;;;;;25.10;3.50;;;6.10;99.90;;;;;;4970438;28;20069;-29
2022/01/05 10:24:02;;;;;;;18.97;3.87;;;6.20;99.90;;;;;;4982613;28;20092;-29
2022/01/05 10:26:30;;;;;;;24.20;4.10;;;6.20;99.90;;;;;;4971275;28;20074;-29
2022/01/05 10:29:01;;;;;;;26.30;4.50;;;6.30;99.90;;;;;;4963866;28;20418;-29
2022/01/05 10:31:38;;;;;;;27.52;4.18;;;6.40;99.90;;;;;;4983072;28;20050;-30
2022/01/05 10:34:24;;;;;;;28.30;5.17;;;6.50;99.90;;;;;;4959316;28;20035;-29
2022/01/05 10:36:58;;;;;;;24.93;4.60;;;6.60;99.90;;;;;;4947176;28;20601;-30
2022/01/05 10:40:02;;;;;;;27.20;4.60;;;6.70;99.90;;;;;;4964819;28;20034;-29
2022/01/05 10:42:34;;;;;;;32.63;5.60;;;6.60;99.90;;;;;;4983946;28;20523;-29
2022/01/05 10:45:02;;;;;;;29.20;5.40;;;6.70;99.90;;;;;;4984861;28;20657;-29
2022/01/05 10:47:29;;;;;;;27.77;4.97;;;6.80;99.90;;;;;;4968401;28;20187;-29
2022/01/05 10:49:54;;;;;;;22.03;5.00;;;6.80;99.90;;;;;;4985909;28;20054;-29
2022/01/05 10:52:24;;;;;;;26.37;5.37;;;6.80;99.90;;;;;;4980318;28;20046;-29
2022/01/05 10:54:50;;;;;;;35.97;5.47;;;6.80;99.90;;;;;;4983190;28;20041;-29
2022/01/05 10:57:17;;;;;;;28.37;5.53;;;6.80;99.90;;;;;;4947178;28;20077;-29
2022/01/05 10:59:46;;;;;;;32.70;5.80;;;6.80;99.90;;;;;;4985910;28;20613;-29
2022/01/05 11:02:21;;;;;;;24.13;4.97;;;7.00;99.90;;;;;;4964384;28;20054;-29
2022/01/05 11:04:47;;;;;;;29.63;5.20;;;7.00;99.90;;;;;;4946883;28;20556;-29
2022/01/05 11:07:23;;;;;;;31.90;5.53;;;7.00;99.90;;;;;;4968687;28;20521;-29
2022/01/05 11:10:09;;;;;;;30.07;5.27;;;7.00;99.90;;;;;;4979047;28;20486;-29
2022/01/05 11:12:40;;;;;;;25.97;5.23;;;7.10;99.90;;;;;;4978714;28;20453;-29
2022/01/05 11:15:19;;;;;;;29.02;5.63;;;7.20;99.90;;;;;;4983744;28;20092;-30
2022/01/05 11:18:18;;;;;;;22.33;4.80;;;7.30;99.90;;;;;;4965316;28;20093;-29
2022/01/05 11:20:57;;;;;;;22.10;4.30;;;7.40;99.90;;;;;;4981381;28;20034;-29
2022/01/05 11:23:26;;;;;;;25.07;5.10;;;7.40;99.90;;;;;;4985228;28;20042;-29
2022/01/05 11:25:54;;;;;;;26.33;4.73;;;7.50;99.90;;;;;;4983130;28;20038;-29
2022/01/05 11:28:22;;;;;;;33.07;5.53;;;7.60;99.90;;;;;;4966514;28;20054;-29
2022/01/05 11:30:50;;;;;;;32.23;5.00;;;7.60;99.90;;;;;;4985660;28;20038;-30
2022/01/05 11:33:17;;;;;;;21.57;4.50;;;7.70;99.90;;;;;;4967949;28;20058;-29
2022/01/05 11:35:43;;;;;;;24.13;4.60;;;7.80;99.90;;;;;;4985684;28;20046;-29
2022/01/05 11:38:10;;;;;;;20.43;4.67;;;7.80;99.90;;;;;;4953488;28;20065;-29
2022/01/05 11:40:39;;;;;;;28.50;4.63;;;7.80;99.90;;;;;;4982339;28;20042;-29
2022/01/05 11:43:15;;;;;;;24.37;5.10;;;7.70;99.90;;;;;;4984190;28;20057;-29
2022/01/05 11:45:47;;;;;;;24.93;5.23;;;7.80;99.90;;;;;;4980877;28;20054;-30
2022/01/05 11:48:16;;;;;;;28.70;4.72;;;7.80;99.90;;;;;;4970240;28;20046;-29
2022/01/05 11:50:59;;;;;;;24.03;3.97;;;7.80;99.90;;;;;;4986294;28;20062;-29
2022/01/05 11:53:34;;;;;;;22.00;5.00;;;7.80;99.90;;;;;;4987703;28;20035;-30
2022/01/05 11:56:00;;;;;;;24.97;4.77;;;7.90;99.90;;;;;;4991003;28;20411;-30
2022/01/05 11:58:31;;;;;;;17.77;4.33;;;7.90;99.90;;;;;;4957820;28;20050;-30
2022/01/05 12:01:20;;;;;;;20.70;3.67;;;7.90;99.90;;;;;;4992046;28;20042;-29
2022/01/05 12:03:58;;;;;;;20.47;4.30;;;7.90;99.90;;;;;;4975471;28;20058;-29
2022/01/05 12:06:32;;;;;;;25.90;4.20;;;7.90;99.90;;;;;;4979856;28;20073;-30
2022/01/05 12:09:02;;;;;;;19.87;3.67;;;7.80;99.90;;;;;;4988983;28;20507;-29
2022/01/05 12:11:41;;;;;;;19.17;3.20;;;7.70;99.90;;;;;;4989529;28;20987;-29
2022/01/05 12:14:27;;;;;;;18.07;3.13;;;7.60;99.90;;;;;;4964166;28;20039;-29
2022/01/05 12:16:55;;;;;;;15.70;3.10;;;7.50;99.90;;;;;;4959671;28;20108;-29
2022/01/05 12:19:22;;;;;;;17.13;2.77;;;7.40;99.90;;;;;;4985058;28;20062;-29
2022/01/05 12:21:52;;;;;;;13.83;3.23;;;7.40;99.90;;;;;;4971443;28;20585;-30
2022/01/05 12:24:19;;;;;;;18.73;3.60;;;7.20;99.90;;;;;;4969014;28;20082;-29
2022/01/05 12:27:05;;;;;;;23.43;3.87;;;7.30;99.90;;;;;;4974833;28;20034;-30
2022/01/05 12:29:32;;;;;;;25.03;4.17;;;7.30;99.90;;;;;;4989329;28;20054;-29
2022/01/05 12:32:00;;;;;;;19.53;4.47;;;7.20;99.90;;;;;;4991565;28;20048;-29
2022/01/05 12:34:54;;;;;;;21.03;3.93;;;7.20;99.90;;;;;;4988094;28;20116;-29
2022/01/05 12:37:45;;;;;;;25.77;4.47;;;7.20;99.90;;;;;;4973249;28;20066;-29
2022/01/05 12:40:24;;;;;;;20.52;4.00;;;7.20;99.90;;;;;;4989894;28;20042;-29
2022/01/05 12:43:10;;;;;;;22.23;4.50;;;7.10;99.90;;;;;;4969639;28;20074;-29
2022/01/05 12:45:53;;;;;;;25.77;4.73;;;7.00;99.90;;;;;;4953167;28;20061;-29
2022/01/05 12:48:35;;;;;;;22.10;4.40;;;7.00;99.90;;;;;;4971055;28;20043;-29
2022/01/05 12:51:22;;;;;;;22.63;4.30;;;6.90;99.90;;;;;;4969536;28;20436;-29
2022/01/05 12:54:18;;;;;;;23.23;4.70;;;6.90;99.90;;;;;;4984587;28;20059;-29
2022/01/05 12:57:04;;;;;;;21.23;3.73;;;6.90;99.90;;;;;;4970233;28;20042;-29